Terminal Aerodrome Forecast
Issued by NWS

Home | Current Version | Previous Version | Text Only | Print | Product List | Glossary On
Versions: 1 2 3 4 5 6 7 8 9 10 11 12 13 14 15 16
452
FTUS42 TJSJ 301933 AAB
TAFJSJ
TAF AMD
TJSJ 301933Z 3020/0118 10012KT P6SM FEW022 SCT050 BKN090
      TEMPO 3020/3023 BKN040
     FM302330 12005KT P6SM -RA SCT025 BKN070 BKN100=

USA.gov is the U.S. government's official web portal to all federal, state and local government web resources and services.